createdAt,value
2019-03-18T00:00:33.702Z,7.30
2019-03-18T00:03:07.265Z,7.30
2019-03-18T00:05:36.044Z,7.20
2019-03-18T00:08:04.917Z,7.20
2019-03-18T00:10:34.535Z,7.10
2019-03-18T00:13:03.403Z,7.10
2019-03-18T00:15:32.299Z,7.00
2019-03-18T00:18:01.083Z,7.00
2019-03-18T00:20:29.909Z,7.00
2019-03-18T00:22:58.779Z,6.90
2019-03-18T00:25:27.608Z,6.90
2019-03-18T00:27:56.464Z,6.90
2019-03-18T00:30:25.290Z,6.90
2019-03-18T00:32:54.113Z,6.90
2019-03-18T00:35:23.023Z,6.90
2019-03-18T00:37:51.897Z,6.80
2019-03-18T00:40:21.311Z,6.80
2019-03-18T00:42:50.218Z,6.80
2019-03-18T00:45:19.175Z,6.80
2019-03-18T00:47:47.975Z,6.70
2019-03-18T00:50:17.245Z,6.70
2019-03-18T00:52:46.128Z,6.70
2019-03-18T00:55:15.097Z,6.70
2019-03-18T00:57:43.939Z,6.70
2019-03-18T01:00:19.805Z,6.60
2019-03-18T01:02:51.822Z,6.60
2019-03-18T01:05:20.633Z,6.60
2019-03-18T01:07:49.490Z,6.60
2019-03-18T01:10:18.550Z,6.60
2019-03-18T01:12:47.398Z,6.50
2019-03-18T01:15:27.583Z,6.50
2019-03-18T01:17:46.853Z,6.50
2019-03-18T01:20:16.234Z,6.50
2019-03-18T01:22:45.030Z,6.50
2019-03-18T01:25:13.913Z,6.50
2019-03-18T01:27:42.763Z,6.50
2019-03-18T01:30:13.225Z,6.50
2019-03-18T01:32:42.107Z,6.50
2019-03-18T01:35:11.359Z,6.50
2019-03-18T01:37:40.154Z,6.50
2019-03-18T01:40:13.534Z,6.50
2019-03-18T01:42:42.389Z,6.50
2019-03-18T01:45:11.939Z,6.40
2019-03-18T01:47:40.893Z,6.40
2019-03-18T01:50:11.389Z,6.40
2019-03-18T01:52:40.255Z,6.40
2019-03-18T01:55:09.240Z,6.40
2019-03-18T01:57:38.152Z,6.40
2019-03-18T02:00:09.653Z,6.40
2019-03-18T02:02:38.524Z,6.40
2019-03-18T02:05:09.206Z,6.40
2019-03-18T02:07:38.006Z,6.40
2019-03-18T02:10:09.830Z,6.40
2019-03-18T02:12:38.664Z,6.40
2019-03-18T02:15:10.501Z,6.40
2019-03-18T02:17:39.394Z,6.40
2019-03-18T02:20:12.720Z,6.40
2019-03-18T02:22:41.576Z,6.40
2019-03-18T02:25:11.065Z,6.40
2019-03-18T02:27:40.018Z,6.40
2019-03-18T02:30:11.631Z,6.40
2019-03-18T02:32:40.473Z,6.40
2019-03-18T02:35:09.313Z,6.40
2019-03-18T02:37:38.160Z,6.50
2019-03-18T02:40:11.240Z,6.50
2019-03-18T02:42:40.118Z,6.50
2019-03-18T02:45:12.893Z,6.40
2019-03-18T02:47:41.670Z,6.40
2019-03-18T02:50:10.795Z,6.50
2019-03-18T02:52:39.636Z,6.50
2019-03-18T02:55:09.396Z,6.50
2019-03-18T02:57:38.330Z,6.50
2019-03-18T03:00:12.514Z,6.40
2019-03-18T03:02:41.353Z,6.40
2019-03-18T03:05:12.155Z,6.40
2019-03-18T03:07:40.979Z,6.40
2019-03-18T03:10:11.441Z,6.40
2019-03-18T03:12:40.249Z,6.40
2019-03-18T03:15:11.393Z,6.40
2019-03-18T03:17:40.235Z,6.40
2019-03-18T03:20:12.034Z,6.50
2019-03-18T03:22:40.818Z,6.40
2019-03-18T03:25:10.688Z,6.40
2019-03-18T03:27:39.546Z,6.40
2019-03-18T03:30:13.342Z,6.40
2019-03-18T03:32:42.299Z,6.40
2019-03-18T03:35:11.347Z,6.40
2019-03-18T03:37:40.204Z,6.40
2019-03-18T03:40:10.684Z,6.40
2019-03-18T03:42:39.556Z,6.30
2019-03-18T03:45:13.001Z,6.30
2019-03-18T03:47:41.890Z,6.30
2019-03-18T03:50:12.301Z,6.30
2019-03-18T03:52:41.214Z,6.30
2019-03-18T03:55:11.414Z,6.30
2019-03-18T03:57:40.992Z,6.30
2019-03-18T04:00:14.318Z,6.30
2019-03-18T04:02:43.474Z,6.30
2019-03-18T04:05:12.320Z,6.30
2019-03-18T04:07:41.104Z,6.30
2019-03-18T04:10:14.121Z,6.30
2019-03-18T04:12:42.953Z,6.30
2019-03-18T04:15:13.313Z,6.30
2019-03-18T04:17:42.159Z,6.30
2019-03-18T04:20:16.598Z,6.30
2019-03-18T04:22:45.445Z,6.30
2019-03-18T04:25:14.303Z,6.30
2019-03-18T04:27:43.116Z,6.30
2019-03-18T04:30:15.844Z,6.30
2019-03-18T04:32:44.723Z,6.30
2019-03-18T04:35:13.609Z,6.30
2019-03-18T04:37:42.437Z,6.30
2019-03-18T04:40:11.866Z,6.30
2019-03-18T04:42:40.682Z,6.30
2019-03-18T04:45:10.863Z,6.30
2019-03-18T04:47:39.710Z,6.20
2019-03-18T04:50:10.702Z,6.20
2019-03-18T04:52:39.568Z,6.20
2019-03-18T04:55:08.815Z,6.20
2019-03-18T04:57:37.640Z,6.20
2019-03-18T05:00:08.866Z,6.20
2019-03-18T05:02:37.709Z,6.20
2019-03-18T05:05:06.530Z,6.20
2019-03-18T05:07:35.419Z,6.20
2019-03-18T05:10:06.041Z,6.20
2019-03-18T05:12:34.920Z,6.10
2019-03-18T05:15:04.437Z,6.10
2019-03-18T05:17:33.249Z,6.10
2019-03-18T05:20:02.107Z,6.10
2019-03-18T05:22:30.993Z,6.10
2019-03-18T05:24:59.830Z,6.10
2019-03-18T05:27:28.711Z,6.10
2019-03-18T05:29:57.591Z,6.10
2019-03-18T05:32:26.439Z,6.10
2019-03-18T05:34:55.314Z,6.10
2019-03-18T05:37:24.160Z,6.10
2019-03-18T05:39:53.054Z,6.10
2019-03-18T05:42:21.914Z,6.10
2019-03-18T05:44:50.690Z,6.10
2019-03-18T05:47:19.554Z,6.10
2019-03-18T05:49:48.458Z,6.10
2019-03-18T05:52:17.329Z,6.10
2019-03-18T05:54:46.178Z,6.10
2019-03-18T05:57:15.051Z,6.10
2019-03-18T05:59:43.931Z,6.10
2019-03-18T06:02:12.789Z,6.10
2019-03-18T06:04:41.650Z,6.10
2019-03-18T06:07:10.455Z,6.10
2019-03-18T06:09:39.310Z,6.00
2019-03-18T06:12:13.892Z,6.10
2019-03-18T06:14:42.769Z,6.10
2019-03-18T06:17:11.650Z,6.10
2019-03-18T06:19:40.489Z,6.10
2019-03-18T06:22:09.330Z,6.10
2019-03-18T06:24:38.190Z,6.10
2019-03-18T06:27:07.034Z,6.10
2019-03-18T06:29:35.870Z,6.10
2019-03-18T06:32:04.759Z,6.10
2019-03-18T06:34:33.630Z,6.10
2019-03-18T06:37:02.515Z,6.10
2019-03-18T06:39:31.354Z,6.20
2019-03-18T06:42:00.201Z,6.10
2019-03-18T06:44:29.109Z,6.10
2019-03-18T06:46:57.968Z,6.10
2019-03-18T06:49:26.844Z,6.20
2019-03-18T06:51:55.698Z,6.20
2019-03-18T06:54:24.559Z,6.20
2019-03-18T06:56:53.371Z,6.20
2019-03-18T06:59:22.213Z,6.20
2019-03-18T07:01:51.094Z,6.20
2019-03-18T07:04:19.966Z,6.20
2019-03-18T07:06:48.801Z,6.20
2019-03-18T07:09:17.637Z,6.20
2019-03-18T07:11:46.502Z,6.20
2019-03-18T07:14:15.329Z,6.20
2019-03-18T07:16:44.216Z,6.20
2019-03-18T07:19:13.098Z,6.20
2019-03-18T07:21:41.901Z,6.20
2019-03-18T07:24:10.782Z,6.20
2019-03-18T07:26:39.633Z,6.20
2019-03-18T07:29:08.546Z,6.10
2019-03-18T07:31:37.405Z,6.10
2019-03-18T07:34:06.259Z,6.10
2019-03-18T07:36:35.128Z,6.10
2019-03-18T07:39:05.725Z,6.10
2019-03-18T07:41:34.589Z,6.10
2019-03-18T07:44:08.824Z,6.10
2019-03-18T07:46:37.702Z,6.10
2019-03-18T07:49:06.513Z,6.10
2019-03-18T07:51:35.386Z,6.10
2019-03-18T07:54:04.348Z,6.10
2019-03-18T07:56:33.229Z,6.20
2019-03-18T07:59:02.070Z,6.30
2019-03-18T08:01:30.850Z,6.30
2019-03-18T08:03:59.761Z,6.30
2019-03-18T08:06:28.539Z,6.30
2019-03-18T08:08:57.429Z,6.40
2019-03-18T08:11:26.261Z,6.40
2019-03-18T08:13:55.129Z,6.50
2019-03-18T08:16:23.951Z,6.50
2019-03-18T08:18:52.836Z,6.50
2019-03-18T08:21:21.622Z,6.50
2019-03-18T08:23:50.475Z,6.60
2019-03-18T08:26:19.318Z,6.70
2019-03-18T08:28:48.118Z,6.70
2019-03-18T08:31:16.973Z,6.80
2019-03-18T08:33:45.821Z,6.90
2019-03-18T08:36:14.673Z,6.90
2019-03-18T08:38:43.528Z,6.90
2019-03-18T08:41:12.383Z,7.00
2019-03-18T08:43:41.213Z,7.10
2019-03-18T08:46:10.101Z,7.20
2019-03-18T08:48:38.895Z,7.20
2019-03-18T08:51:07.781Z,7.20
2019-03-18T08:53:36.590Z,7.20
2019-03-18T08:56:05.464Z,7.20
2019-03-18T08:58:34.345Z,7.20
2019-03-18T09:01:03.174Z,7.20
2019-03-18T09:03:32.007Z,7.30
2019-03-18T09:06:00.864Z,7.30
2019-03-18T09:08:29.722Z,7.40
2019-03-18T09:10:58.598Z,7.40
2019-03-18T09:13:27.426Z,7.40
2019-03-18T09:15:56.384Z,7.50
2019-03-18T09:18:25.224Z,7.50
2019-03-18T09:20:54.045Z,7.40
2019-03-18T09:23:22.888Z,7.40
2019-03-18T09:25:51.725Z,7.50
2019-03-18T09:28:22.256Z,7.60
2019-03-18T09:30:51.071Z,7.60
2019-03-18T09:33:19.954Z,7.60
2019-03-18T09:35:48.823Z,7.60
2019-03-18T09:38:17.691Z,7.60
2019-03-18T09:40:46.480Z,7.70
2019-03-18T09:43:15.345Z,7.80
2019-03-18T09:45:44.202Z,8.00
2019-03-18T09:48:13.110Z,8.10
2019-03-18T09:50:41.937Z,8.10
2019-03-18T09:53:10.759Z,8.00
2019-03-18T09:55:39.628Z,7.90
2019-03-18T09:58:08.459Z,8.00
2019-03-18T10:00:37.323Z,8.00
2019-03-18T10:03:06.145Z,8.00
2019-03-18T10:05:35.030Z,7.90
2019-03-18T10:08:03.905Z,7.90
2019-03-18T10:10:32.770Z,7.90
2019-03-18T10:13:01.588Z,7.80
2019-03-18T10:15:30.447Z,7.80
2019-03-18T10:17:59.313Z,7.90
2019-03-18T10:20:28.178Z,7.90
2019-03-18T10:22:56.987Z,7.70
2019-03-18T10:25:25.835Z,7.60
2019-03-18T10:27:54.746Z,7.60
2019-03-18T10:30:23.579Z,7.60
2019-03-18T10:32:52.493Z,7.60
2019-03-18T10:35:21.331Z,7.70
2019-03-18T10:37:50.194Z,7.80
2019-03-18T10:40:19.076Z,7.90
2019-03-18T10:42:47.900Z,8.00
2019-03-18T10:45:16.754Z,8.00
2019-03-18T10:47:45.634Z,7.80
2019-03-18T10:50:16.632Z,7.70
2019-03-18T10:52:45.623Z,7.60
2019-03-18T10:55:14.591Z,7.70
2019-03-18T10:57:43.434Z,7.70
2019-03-18T11:00:15.267Z,7.70
2019-03-18T11:02:45.219Z,7.70
2019-03-18T11:05:15.006Z,7.70
2019-03-18T11:07:43.883Z,7.80
2019-03-18T11:10:17.222Z,7.80
2019-03-18T11:12:46.036Z,8.00
2019-03-18T11:15:16.247Z,8.00
2019-03-18T11:17:45.045Z,8.20
2019-03-18T11:20:15.277Z,8.20
2019-03-18T11:22:44.588Z,8.10
2019-03-18T11:25:18.174Z,8.20
2019-03-18T11:27:46.967Z,8.30
2019-03-18T11:30:20.074Z,8.50
2019-03-18T11:32:48.917Z,8.60
2019-03-18T11:35:17.824Z,8.70
2019-03-18T11:37:46.707Z,8.70
2019-03-18T11:40:22.999Z,8.80
2019-03-18T11:42:51.830Z,8.90
2019-03-18T11:45:20.719Z,8.90
2019-03-18T11:47:49.699Z,9.00
2019-03-18T11:50:19.841Z,9.00
2019-03-18T11:52:48.716Z,8.90
2019-03-18T11:55:19.966Z,8.90
2019-03-18T11:57:48.950Z,9.10
2019-03-18T12:00:19.932Z,9.40
2019-03-18T12:02:48.770Z,9.60
2019-03-18T12:05:21.892Z,9.70
2019-03-18T12:07:50.750Z,9.60
2019-03-18T12:10:21.095Z,9.70
2019-03-18T12:12:49.958Z,9.80
2019-03-18T12:15:21.583Z,9.70
2019-03-18T12:17:50.695Z,9.70
2019-03-18T12:20:24.786Z,9.60
2019-03-18T12:22:50.065Z,9.50
2019-03-18T12:25:18.890Z,9.50
2019-03-18T12:27:47.777Z,9.50
2019-03-18T12:30:21.325Z,9.40
2019-03-18T12:32:50.224Z,9.40
2019-03-18T12:35:19.011Z,9.40
2019-03-18T12:37:47.926Z,9.50
2019-03-18T12:40:17.446Z,9.60
2019-03-18T12:42:46.375Z,9.80
2019-03-18T12:45:16.335Z,10.10
2019-03-18T12:47:45.241Z,10.40
2019-03-18T12:50:18.089Z,10.40
2019-03-18T12:52:46.935Z,10.20
2019-03-18T12:55:15.940Z,10.00
2019-03-18T12:57:44.751Z,9.90
2019-03-18T13:00:25.716Z,9.90
2019-03-18T13:02:54.586Z,9.90
2019-03-18T13:05:23.463Z,9.80
2019-03-18T13:08:01.690Z,10.00
2019-03-18T13:10:30.669Z,10.20
2019-03-18T13:12:59.519Z,10.00
2019-03-18T13:15:28.393Z,9.80
2019-03-18T13:17:57.212Z,9.80
2019-03-18T13:20:26.058Z,9.80
2019-03-18T13:22:54.960Z,9.80
2019-03-18T13:25:23.824Z,9.70
2019-03-18T13:27:52.685Z,9.70
2019-03-18T13:30:23.089Z,9.80
2019-03-18T13:32:51.966Z,9.70
2019-03-18T13:35:20.850Z,9.70
2019-03-18T13:37:49.764Z,9.80
2019-03-18T13:40:19.327Z,9.80
2019-03-18T13:42:48.228Z,9.80
2019-03-18T13:45:23.069Z,9.90
2019-03-18T13:47:51.956Z,10.00
2019-03-18T13:50:21.853Z,10.00
2019-03-18T13:52:50.785Z,10.00
2019-03-18T13:55:19.701Z,10.00
2019-03-18T13:57:48.598Z,10.00
2019-03-18T14:00:18.706Z,10.00
2019-03-18T14:02:47.740Z,10.10
2019-03-18T14:05:16.577Z,10.10
2019-03-18T14:07:58.619Z,10.00
2019-03-18T14:10:17.969Z,10.00
2019-03-18T14:12:46.773Z,9.90
2019-03-18T14:15:20.550Z,9.80
2019-03-18T14:17:49.380Z,9.80
2019-03-18T14:20:19.616Z,9.80
2019-03-18T14:22:48.485Z,9.70
2019-03-18T14:25:17.356Z,9.50
2019-03-18T14:27:46.203Z,9.40
2019-03-18T14:30:16.633Z,9.30
2019-03-18T14:32:45.628Z,9.40
2019-03-18T14:35:14.559Z,9.30
2019-03-18T14:37:43.479Z,9.20
2019-03-18T14:40:23.953Z,9.20
2019-03-18T14:42:52.811Z,9.20
2019-03-18T14:45:22.801Z,9.10
2019-03-18T14:47:51.764Z,9.00
2019-03-18T14:50:21.018Z,9.00
2019-03-18T14:52:49.975Z,9.00
2019-03-18T14:55:19.438Z,9.00
2019-03-18T14:57:48.359Z,8.90
2019-03-18T15:00:21.832Z,8.80
2019-03-18T15:02:50.775Z,8.80
2019-03-18T15:05:19.629Z,8.80
2019-03-18T15:07:48.471Z,8.80
2019-03-18T15:10:24.659Z,8.70
2019-03-18T15:12:53.524Z,8.50
2019-03-18T15:15:22.356Z,8.40
2019-03-18T15:17:51.159Z,8.40
2019-03-18T15:20:25.791Z,8.30
2019-03-18T15:22:54.595Z,8.20
2019-03-18T15:25:24.829Z,8.20
2019-03-18T15:27:53.741Z,8.10
2019-03-18T15:30:22.542Z,8.00
2019-03-18T15:32:51.405Z,8.00
2019-03-18T15:35:20.359Z,7.90
2019-03-18T15:37:49.211Z,7.80
2019-03-18T15:40:25.394Z,7.70
2019-03-18T15:42:54.281Z,7.70
2019-03-18T15:45:23.297Z,7.70
2019-03-18T15:47:52.127Z,7.60
2019-03-18T15:50:26.214Z,7.50
2019-03-18T15:52:55.075Z,7.50
2019-03-18T15:55:24.637Z,7.50
2019-03-18T15:57:53.806Z,7.50
2019-03-18T16:00:32.889Z,7.40
2019-03-18T16:03:01.834Z,7.40
2019-03-18T16:05:30.742Z,7.40
2019-03-18T16:07:59.595Z,7.30
2019-03-18T16:10:28.500Z,7.30
2019-03-18T16:13:00.403Z,7.30
2019-03-18T16:15:29.215Z,7.10
2019-03-18T16:17:58.120Z,7.10
2019-03-18T16:20:27.586Z,7.00
2019-03-18T16:22:56.596Z,7.00
2019-03-18T16:25:25.595Z,7.00
2019-03-18T16:27:54.463Z,7.00
2019-03-18T16:30:23.372Z,7.00
2019-03-18T16:32:52.452Z,7.00
2019-03-18T16:35:21.263Z,7.00
2019-03-18T16:37:50.160Z,6.90
2019-03-18T16:40:23.502Z,6.90
2019-03-18T16:42:52.340Z,6.90
2019-03-18T16:45:21.418Z,6.80
2019-03-18T16:47:50.190Z,6.80
2019-03-18T16:50:26.540Z,6.80
2019-03-18T16:52:55.480Z,6.80
2019-03-18T16:55:24.321Z,6.70
2019-03-18T16:57:53.140Z,6.70
2019-03-18T17:00:26.944Z,6.70
2019-03-18T17:02:55.910Z,6.70
2019-03-18T17:05:24.738Z,6.60
2019-03-18T17:07:54.396Z,6.60
2019-03-18T17:10:23.526Z,6.60
2019-03-18T17:12:52.415Z,6.60
2019-03-18T17:15:22.435Z,6.50
2019-03-18T17:17:51.271Z,6.50
2019-03-18T17:20:20.137Z,6.50
2019-03-18T17:22:50.117Z,6.40
2019-03-18T17:25:22.244Z,6.40
2019-03-18T17:27:51.156Z,6.40
2019-03-18T17:30:20.836Z,6.30
2019-03-18T17:32:49.743Z,6.30
2019-03-18T17:35:18.657Z,6.30
2019-03-18T17:37:47.610Z,6.30
2019-03-18T17:40:20.791Z,6.30
2019-03-18T17:42:49.593Z,6.30
2019-03-18T17:45:21.294Z,6.20
2019-03-18T17:47:50.249Z,6.20
2019-03-18T17:50:30.525Z,6.20
2019-03-18T17:53:03.752Z,6.20
2019-03-18T17:55:31.336Z,6.20
2019-03-18T17:58:00.185Z,6.20
2019-03-18T18:00:42.470Z,6.10
2019-03-18T18:03:11.344Z,6.10
2019-03-18T18:05:40.870Z,6.10
2019-03-18T18:08:09.749Z,6.10
2019-03-18T18:10:38.579Z,6.10
2019-03-18T18:13:07.401Z,6.10
2019-03-18T18:15:36.359Z,6.10
2019-03-18T18:18:05.261Z,6.00
2019-03-18T18:20:34.111Z,6.00
2019-03-18T18:23:13.701Z,6.00
2019-03-18T18:25:33.639Z,6.00
2019-03-18T18:28:02.465Z,6.00
2019-03-18T18:30:31.369Z,5.90
2019-03-18T18:33:00.214Z,5.90
2019-03-18T18:35:29.156Z,5.90
2019-03-18T18:37:58.094Z,5.80
2019-03-18T18:40:28.427Z,5.80
2019-03-18T18:42:58.934Z,5.70
2019-03-18T18:45:27.880Z,5.70
2019-03-18T18:47:56.693Z,5.60
2019-03-18T18:50:25.551Z,5.60
2019-03-18T18:52:54.405Z,5.60
2019-03-18T18:55:23.284Z,5.60
2019-03-18T18:57:52.166Z,5.50
2019-03-18T19:00:22.198Z,5.40
2019-03-18T19:02:51.021Z,5.30
2019-03-18T19:05:20.279Z,5.30
2019-03-18T19:07:49.184Z,5.20
2019-03-18T19:10:22.056Z,5.20
2019-03-18T19:12:50.911Z,5.10
2019-03-18T19:15:30.930Z,5.20
2019-03-18T19:17:59.827Z,5.20
2019-03-18T19:20:28.615Z,5.20
2019-03-18T19:22:57.470Z,5.20
2019-03-18T19:25:26.353Z,5.20
2019-03-18T19:27:55.222Z,5.20
2019-03-18T19:30:24.626Z,5.20
2019-03-18T19:32:53.594Z,5.20
2019-03-18T19:35:22.515Z,5.10
2019-03-18T19:37:52.877Z,5.20
2019-03-18T19:40:22.837Z,5.20
2019-03-18T19:42:51.708Z,5.20
2019-03-18T19:45:20.780Z,5.20
2019-03-18T19:47:49.632Z,5.20
2019-03-18T19:50:29.609Z,5.20
2019-03-18T19:52:58.456Z,5.30
2019-03-18T19:55:27.303Z,5.20
2019-03-18T19:57:56.155Z,5.20
2019-03-18T20:00:29.093Z,5.20
2019-03-18T20:02:57.900Z,5.10
2019-03-18T20:05:26.859Z,5.20
2019-03-18T20:07:55.695Z,5.10
2019-03-18T20:10:24.545Z,5.10
2019-03-18T20:12:53.600Z,5.10
2019-03-18T20:15:22.550Z,5.10
2019-03-18T20:17:51.419Z,5.10
2019-03-18T20:20:24.077Z,5.20
2019-03-18T20:22:52.934Z,5.20
2019-03-18T20:25:21.836Z,5.20
2019-03-18T20:27:50.635Z,5.20
2019-03-18T20:30:20.652Z,5.20
2019-03-18T20:32:49.608Z,5.20
2019-03-18T20:35:23.420Z,5.20
2019-03-18T20:37:52.614Z,5.10
2019-03-18T20:40:21.641Z,5.10
2019-03-18T20:42:50.586Z,5.00
2019-03-18T20:45:20.313Z,5.00
2019-03-18T20:47:49.202Z,4.90
2019-03-18T20:50:19.265Z,4.90
2019-03-18T20:52:48.080Z,4.90
2019-03-18T20:55:17.993Z,4.90
2019-03-18T20:57:46.855Z,4.80
2019-03-18T21:00:25.285Z,4.90
2019-03-18T21:02:54.100Z,4.80
2019-03-18T21:05:25.191Z,4.80
2019-03-18T21:07:53.539Z,4.80
2019-03-18T21:10:22.487Z,4.80
2019-03-18T21:12:51.296Z,4.80
2019-03-18T21:15:20.145Z,4.80
2019-03-18T21:17:48.991Z,4.80
2019-03-18T21:20:18.646Z,4.80
2019-03-18T21:22:47.580Z,4.80
2019-03-18T21:25:16.649Z,4.80
2019-03-18T21:27:45.455Z,4.80
2019-03-18T21:30:19.797Z,4.80
2019-03-18T21:32:48.741Z,4.90
2019-03-18T21:35:17.658Z,4.80
2019-03-18T21:37:46.667Z,4.80
2019-03-18T21:40:22.839Z,4.80
2019-03-18T21:42:51.669Z,4.70
2019-03-18T21:45:23.519Z,4.70
2019-03-18T21:47:52.357Z,4.60
2019-03-18T21:50:21.166Z,4.60
2019-03-18T21:52:50.023Z,4.60
2019-03-18T21:55:18.876Z,4.60
2019-03-18T21:57:47.706Z,4.60
2019-03-18T22:00:23.351Z,4.50
2019-03-18T22:02:52.184Z,4.50
2019-03-18T22:05:21.036Z,4.40
2019-03-18T22:07:49.862Z,4.40
2019-03-18T22:10:19.878Z,4.40
2019-03-18T22:12:48.966Z,4.50
2019-03-18T22:15:18.132Z,4.60
2019-03-18T22:17:47.070Z,4.50
2019-03-18T22:20:20.288Z,4.50
2019-03-18T22:22:49.092Z,4.40
2019-03-18T22:25:17.960Z,4.30
2019-03-18T22:27:46.823Z,4.30
2019-03-18T22:30:20.021Z,4.30
2019-03-18T22:32:48.935Z,4.30
2019-03-18T22:35:17.837Z,4.30
2019-03-18T22:37:46.659Z,4.40
2019-03-18T22:40:17.475Z,4.40
2019-03-18T22:42:46.301Z,4.40
2019-03-18T22:45:16.476Z,4.30
2019-03-18T22:47:45.340Z,4.30
2019-03-18T22:50:16.192Z,4.30
2019-03-18T22:52:45.061Z,4.30
2019-03-18T22:55:15.224Z,4.20
2019-03-18T22:57:44.305Z,4.20
2019-03-18T23:00:27.090Z,4.20
2019-03-18T23:02:55.959Z,4.20
2019-03-18T23:05:25.508Z,4.20
2019-03-18T23:07:55.389Z,4.30
2019-03-18T23:10:24.371Z,4.30
2019-03-18T23:12:53.280Z,4.30
2019-03-18T23:15:22.095Z,4.30
2019-03-18T23:17:50.938Z,4.30
2019-03-18T23:20:19.775Z,4.30
2019-03-18T23:22:48.638Z,4.30
2019-03-18T23:25:17.511Z,4.30
2019-03-18T23:27:46.336Z,4.30
2019-03-18T23:30:15.617Z,4.30
2019-03-18T23:32:44.569Z,4.40
2019-03-18T23:35:13.396Z,4.40
2019-03-18T23:37:42.293Z,4.40
2019-03-18T23:40:12.675Z,4.40
2019-03-18T23:42:41.489Z,4.50
2019-03-18T23:45:11.545Z,4.50
2019-03-18T23:47:40.370Z,4.50
2019-03-18T23:50:13.653Z,4.50
2019-03-18T23:52:42.537Z,4.50
2019-03-18T23:55:19.057Z,4.50
2019-03-18T23:57:42.203Z,4.40
